Time;durP1;ratioP1;P1;durP2;ratioP2;P2;SDS_P1;SDS_P2;PMS_P1;PMS_P2;Temp;Humidity;BMP_temperature;BMP_pressure;BME280_temperature;BME280_humidity;BME280_pressure;Samples;Min_cycle;Max_cycle;Signal;HPM_P1;HPM_P2
2023/09/30 00:02:11;;;;;;;19.55;11.43;;;;;;;13.35;69.18;100342.22;4806250;29;20038;-77
2023/09/30 00:04:43;;;;;;;21.98;12.00;;;;;;;13.40;69.16;100346.53;4792906;29;20645;-73
2023/09/30 00:07:14;;;;;;;21.75;11.30;;;;;;;13.26;69.19;100327.47;4821530;29;20383;-74
2023/09/30 00:09:43;;;;;;;19.67;12.10;;;;;;;13.11;69.22;100310.25;4809623;29;20050;-75
2023/09/30 00:12:09;;;;;;;24.98;11.57;;;;;;;13.29;69.34;100330.03;4806200;29;20062;-75
2023/09/30 00:14:56;;;;;;;20.25;11.90;;;;;;;13.40;69.28;100356.06;4797775;29;20114;-77
2023/09/30 00:17:22;;;;;;;18.17;11.77;;;;;;;13.21;69.19;100329.28;4794206;29;20046;-74
2023/09/30 00:19:48;;;;;;;21.00;12.35;;;;;;;13.41;69.66;100365.66;4809750;29;20146;-75
2023/09/30 00:22:15;;;;;;;22.80;12.25;;;;;;;12.98;69.40;100290.34;4794750;29;20050;-76
2023/09/30 00:24:41;;;;;;;22.48;11.60;;;;;;;13.13;69.38;100333.72;4805061;29;20590;-73
2023/09/30 00:27:10;;;;;;;20.98;12.20;;;;;;;13.40;69.56;100376.97;4806775;29;20050;-77
2023/09/30 00:29:36;;;;;;;20.70;11.90;;;;;;;13.21;69.53;100344.97;4810103;29;20066;-76
2023/09/30 00:32:09;;;;;;;21.33;12.40;;;;;;;13.31;69.73;100364.03;4794969;29;20053;-75
2023/09/30 00:34:44;;;;;;;21.85;11.55;;;;;;;13.17;69.72;100338.03;4820069;29;20050;-74
2023/09/30 00:37:10;;;;;;;23.20;12.35;;;;;;;13.25;69.80;100367.53;4793531;29;20425;-75
2023/09/30 00:39:41;;;;;;;19.15;11.90;;;;;;;13.25;69.87;100368.44;4808085;29;20061;-75
2023/09/30 00:42:08;;;;;;;19.60;12.73;;;;;;;13.05;69.79;100339.03;4805197;29;20214;-73
2023/09/30 00:44:34;;;;;;;21.23;12.23;;;;;;;13.13;69.88;100346.78;4806853;29;20057;-73
2023/09/30 00:47:04;;;;;;;25.80;12.15;;;;;;;13.20;70.01;100369.38;4790471;29;20050;-74
2023/09/30 00:49:31;;;;;;;25.30;14.00;;;;;;;13.03;70.04;100339.03;4808075;29;20046;-75
2023/09/30 00:51:58;;;;;;;21.05;12.63;;;;;;;13.15;70.09;100363.31;4808995;29;20081;-74
2023/09/30 00:54:26;;;;;;;22.92;13.07;;;;;;;13.03;70.04;100348.63;4805420;29;20057;-75
2023/09/30 00:57:03;;;;;;;23.52;13.95;;;;;;;13.11;70.38;100359.88;4803125;29;20100;-73
2023/09/30 00:59:32;;;;;;;25.95;13.23;;;;;;;12.96;70.27;100346.06;4808222;29;20421;-74
2023/09/30 01:02:00;;;;;;;24.73;13.43;;;;;;;12.77;70.38;100316.69;4791713;29;20054;-74
2023/09/30 01:04:27;;;;;;;21.42;13.00;;;;;;;12.80;70.45;100327.06;4794395;29;20043;-74
2023/09/30 01:06:59;;;;;;;25.98;13.50;;;;;;;12.95;70.44;100360.00;4798653;29;20047;-74
2023/09/30 01:09:27;;;;;;;23.15;13.40;;;;;;;12.92;70.70;100360.03;4810149;29;20039;-76
2023/09/30 01:11:53;;;;;;;21.77;12.02;;;;;;;12.89;70.57;100357.47;4808317;29;20483;-74
2023/09/30 01:14:38;;;;;;;26.02;13.13;;;;;;;12.87;70.75;100360.97;4809408;29;20498;-75
2023/09/30 01:17:08;;;;;;;24.38;13.18;;;;;;;12.83;70.89;100349.69;4794870;29;20043;-74
2023/09/30 01:19:35;;;;;;;21.83;11.98;;;;;;;12.77;70.81;100342.78;4825444;29;20075;-75
2023/09/30 01:22:04;;;;;;;28.55;13.27;;;;;;;12.79;71.09;100348.00;4787199;29;20098;-75
2023/09/30 01:24:33;;;;;;;18.42;12.23;;;;;;;12.63;71.27;100328.97;4811131;29;20133;-76
2023/09/30 01:27:00;;;;;;;21.80;13.13;;;;;;;12.58;70.96;100322.97;4807726;29;20133;-75
2023/09/30 01:29:34;;;;;;;21.50;13.20;;;;;;;12.61;71.25;100328.13;4798082;29;20051;-74
2023/09/30 01:32:01;;;;;;;23.98;12.68;;;;;;;12.68;71.32;100340.25;4820053;29;20063;-78
2023/09/30 01:34:30;;;;;;;22.77;12.60;;;;;;;12.47;71.60;100309.97;4797340;29;20079;-75
2023/09/30 01:36:57;;;;;;;25.25;14.07;;;;;;;12.64;71.09;100338.53;4808518;29;20172;-75
2023/09/30 01:39:35;;;;;;;21.85;12.85;;;;;;;12.69;71.53;100351.59;4793823;29;20467;-76
2023/09/30 01:42:02;;;;;;;22.15;12.90;;;;;;;12.56;71.40;100338.63;4810358;29;20137;-75
2023/09/30 01:44:28;;;;;;;25.92;12.38;;;;;;;12.52;71.32;100336.91;4807767;29;20051;-76
2023/09/30 01:46:54;;;;;;;19.85;12.68;;;;;;;12.55;71.69;100342.09;4809950;29;20039;-74
2023/09/30 01:49:28;;;;;;;20.08;13.45;;;;;;;12.59;71.46;100348.16;4814629;29;20046;-75
2023/09/30 01:51:56;;;;;;;21.98;11.60;;;;;;;12.53;71.73;100335.19;4809173;29;20181;-75
2023/09/30 01:54:24;;;;;;;23.40;12.38;;;;;;;12.52;71.65;100336.91;4797725;29;20926;-74
2023/09/30 01:56:50;;;;;;;21.17;12.40;;;;;;;12.54;71.75;100335.16;4807479;29;20043;-75
2023/09/30 01:59:16;;;;;;;20.13;13.05;;;;;;;12.49;71.83;100326.47;4781524;29;20184;-74
2023/09/30 02:01:42;;;;;;;23.73;13.43;;;;;;;12.57;71.81;100329.91;4807818;29;20061;-73
2023/09/30 02:04:08;;;;;;;18.73;11.38;;;;;;;12.44;71.64;100318.69;4807708;29;20092;-73
2023/09/30 02:06:40;;;;;;;17.60;11.70;;;;;;;12.61;71.67;100338.56;4807472;29;20082;-76
2023/09/30 02:09:08;;;;;;;18.23;11.98;;;;;;;12.13;71.85;100255.47;4794931;29;20379;-75
2023/09/30 02:11:41;;;;;;;19.60;12.13;;;;;;;12.48;71.69;100316.91;4795456;29;20042;-74
2023/09/30 02:14:07;;;;;;;20.83;13.05;;;;;;;12.24;71.66;100281.47;4790529;29;20047;-73
2023/09/30 02:16:34;;;;;;;22.25;12.60;;;;;;;12.53;71.83;100332.56;4806229;29;20058;-74
2023/09/30 02:19:03;;;;;;;22.10;12.50;;;;;;;12.46;71.95;100335.22;4809028;29;20042;-74
2023/09/30 02:21:30;;;;;;;21.48;12.40;;;;;;;12.47;71.75;100334.34;4808115;29;20107;-74
2023/09/30 02:23:57;;;;;;;19.60;12.45;;;;;;;12.39;71.68;100327.44;4807863;29;20055;-74
2023/09/30 02:26:27;;;;;;;17.50;12.30;;;;;;;12.08;71.93;100283.31;4792531;29;20047;-73
2023/09/30 02:28:55;;;;;;;19.98;11.77;;;;;;;12.46;72.18;100342.19;4806772;29;20042;-72
2023/09/30 02:31:24;;;;;;;25.38;12.05;;;;;;;12.39;72.07;100327.44;4808415;29;20046;-72
2023/09/30 02:33:51;;;;;;;17.55;11.93;;;;;;;12.46;72.24;100332.59;4807482;29;20043;-72
2023/09/30 02:36:17;;;;;;;20.00;11.73;;;;;;;12.30;72.04;100308.38;4802746;29;20588;-73
2023/09/30 02:38:46;;;;;;;20.15;11.70;;;;;;;12.26;72.15;100306.66;4779909;29;20107;-72
2023/09/30 02:41:17;;;;;;;20.35;11.00;;;;;;;12.29;71.90;100311.84;4809409;29;20047;-71
2023/09/30 02:43:44;;;;;;;20.70;12.10;;;;;;;12.40;72.27;100324.81;4792863;29;20051;-72
2023/09/30 02:46:10;;;;;;;18.30;11.80;;;;;;;12.47;72.23;100336.94;4806370;29;20051;-73
2023/09/30 02:48:36;;;;;;;19.08;11.05;;;;;;;12.29;72.11;100303.19;4790028;29;20046;-74
2023/09/30 02:51:02;;;;;;;20.77;12.23;;;;;;;12.42;72.25;100327.44;4809106;29;20054;-73
2023/09/30 02:53:31;;;;;;;16.75;11.82;;;;;;;12.35;72.30;100309.22;4805121;29;20477;-73
2023/09/30 02:55:59;;;;;;;19.35;11.57;;;;;;;12.43;72.39;100323.94;4811080;29;20051;-72
2023/09/30 02:58:26;;;;;;;20.20;11.50;;;;;;;12.32;72.02;100296.19;4821036;29;20046;-74
2023/09/30 03:00:53;;;;;;;21.00;11.23;;;;;;;12.27;71.93;100289.28;4805182;29;20134;-75
2023/09/30 03:03:25;;;;;;;17.80;11.18;;;;;;;12.38;72.07;100313.53;4807352;29;20139;-73
2023/09/30 03:05:52;;;;;;;16.55;11.13;;;;;;;12.38;72.45;100310.06;4807654;29;20106;-72
2023/09/30 03:08:19;;;;;;;20.42;11.27;;;;;;;12.24;72.27;100292.78;4807197;29;20046;-75
2023/09/30 03:10:48;;;;;;;20.30;11.65;;;;;;;12.43;72.28;100326.56;4807828;29;20045;-73
2023/09/30 03:13:15;;;;;;;19.88;11.80;;;;;;;12.33;72.26;100303.13;4804178;29;20042;-72
2023/09/30 03:15:50;;;;;;;17.92;11.45;;;;;;;12.41;72.25;100323.09;4818260;29;20070;-74
2023/09/30 03:18:17;;;;;;;23.00;11.55;;;;;;;12.40;72.06;100317.00;4808221;29;20055;-73
2023/09/30 03:20:47;;;;;;;17.23;10.88;;;;;;;12.39;72.29;100311.78;4805217;29;20070;-72
2023/09/30 03:23:14;;;;;;;20.02;11.73;;;;;;;12.37;72.26;100321.38;4804369;29;20062;-72
2023/09/30 03:25:43;;;;;;;19.35;12.80;;;;;;;12.31;72.21;100306.66;4820997;29;20058;-72
2023/09/30 03:28:12;;;;;;;20.90;12.88;;;;;;;12.32;71.74;100310.97;4804917;29;20043;-74
2023/09/30 03:30:40;;;;;;;22.92;12.55;;;;;;;12.14;72.00;100285.91;4808213;29;20134;-76
2023/09/30 03:33:07;;;;;;;18.48;12.23;;;;;;;11.72;72.10;100221.84;4806965;29;20049;-75
2023/09/30 03:35:33;;;;;;;19.83;12.27;;;;;;;12.25;72.15;100304.94;4809779;29;20062;-74
2023/09/30 03:38:01;;;;;;;19.10;11.65;;;;;;;12.14;71.95;100291.09;4787480;29;20047;-72
2023/09/30 03:40:33;;;;;;;21.60;12.77;;;;;;;12.34;72.29;100317.91;4792561;29;20065;-73
2023/09/30 03:43:01;;;;;;;20.20;12.40;;;;;;;12.34;72.25;100317.91;4804494;29;20094;-75
2023/09/30 03:45:27;;;;;;;21.80;12.15;;;;;;;12.33;72.10;100324.00;4804416;29;20050;-74
2023/09/30 03:47:53;;;;;;;19.05;12.07;;;;;;;12.35;72.14;100318.78;4805576;29;20046;-74
2023/09/30 03:50:23;;;;;;;22.15;12.68;;;;;;;12.26;72.11;100304.03;4821387;29;20498;-74
2023/09/30 03:52:50;;;;;;;26.23;13.63;;;;;;;12.17;72.62;100278.03;4804081;29;20043;-73
2023/09/30 03:55:17;;;;;;;23.83;12.30;;;;;;;12.43;72.59;100321.34;4809133;29;20043;-73
2023/09/30 03:57:47;;;;;;;24.50;12.98;;;;;;;12.49;72.13;100321.25;4778605;29;20050;-75
2023/09/30 04:00:16;;;;;;;21.08;13.57;;;;;;;12.53;72.36;100320.38;4786367;29;20046;-75
2023/09/30 04:02:48;;;;;;;22.58;13.02;;;;;;;12.72;72.36;100320.19;4805196;29;20054;-75
2023/09/30 04:05:15;;;;;;;21.98;12.93;;;;;;;12.71;72.25;100292.34;4819020;29;20107;-74
2023/09/30 04:07:42;;;;;;;22.42;13.18;;;;;;;12.58;72.27;100260.31;4788998;29;20042;-74
2023/09/30 04:10:09;;;;;;;19.02;12.02;;;;;;;12.88;71.96;100300.91;4805729;29;20061;-74
2023/09/30 04:12:38;;;;;;;20.98;12.60;;;;;;;13.03;72.04;100291.16;4804826;29;20549;-75
2023/09/30 04:15:09;;;;;;;23.83;12.98;;;;;;;12.88;71.76;100226.91;4820596;29;20053;-74
2023/09/30 04:17:38;;;;;;;23.83;12.95;;;;;;;13.58;71.74;100294.00;4809243;29;20050;-74
2023/09/30 04:20:15;;;;;;;22.98;12.60;;;;;;;13.51;71.47;100239.19;4792217;29;20106;-75
2023/09/30 04:22:48;;;;;;;25.38;12.85;;;;;;;14.14;71.22;100286.22;4804149;29;20050;-75
2023/09/30 04:25:17;;;;;;;24.70;12.63;;;;;;;13.97;70.60;100208.00;4806235;29;20054;-74
2023/09/30 04:27:49;;;;;;;27.20;11.35;;;;;;;14.65;70.40;100277.53;4806068;29;20054;-79
2023/09/30 04:30:18;;;;;;;22.60;11.40;;;;;;;14.94;70.18;100257.78;4811348;29;20095;-77
2023/09/30 04:32:45;;;;;;;17.95;10.50;;;;;;;15.57;69.08;100268.72;4824041;29;20039;-78
2023/09/30 04:35:11;;;;;;;16.98;10.45;;;;;;;16.54;68.34;100304.09;4807953;29;20053;-78
2023/09/30 04:37:38;;;;;;;19.23;10.90;;;;;;;17.22;67.26;100285.66;4806325;29;20054;-75
2023/09/30 04:40:15;;;;;;;13.73;10.10;;;;;;;18.04;65.78;100270.06;4789772;29;20699;-75
2023/09/30 04:42:44;;;;;;;21.15;10.88;;;;;;;18.72;63.87;100287.97;4793008;29;20047;-77
2023/09/30 04:45:16;;;;;;;15.95;9.98;;;;;;;19.04;62.78;100267.56;4804687;29;20061;-72
2023/09/30 04:47:53;;;;;;;13.45;9.57;;;;;;;19.59;60.80;100261.09;4808800;29;20046;-72
2023/09/30 04:50:21;;;;;;;14.88;10.07;;;;;;;20.22;59.19;100274.44;4820730;29;20043;-72
2023/09/30 04:52:50;;;;;;;15.02;9.75;;;;;;;20.67;58.03;100264.59;4801313;29;20055;-74
2023/09/30 04:55:37;;;;;;;15.88;10.57;;;;;;;21.23;55.93;100270.13;4807151;29;20092;-77
2023/09/30 04:58:09;;;;;;;14.88;10.05;;;;;;;21.46;54.91;100247.00;4806329;29;20077;-74
2023/09/30 05:00:35;;;;;;;17.20;10.65;;;;;;;21.84;53.66;100259.38;4795233;29;20046;-74
2023/09/30 05:03:05;;;;;;;15.88;9.85;;;;;;;22.30;51.76;100258.88;4806159;29;20055;-74
2023/09/30 05:05:35;;;;;;;15.40;10.18;;;;;;;22.87;51.45;100264.75;4805159;29;20058;-75
2023/09/30 05:08:13;;;;;;;17.88;10.15;;;;;;;23.01;49.58;100200.34;4806207;29;20065;-74
2023/09/30 05:10:40;;;;;;;17.52;9.75;;;;;;;23.73;47.62;100258.38;4803073;29;20051;-76
2023/09/30 05:13:06;;;;;;;15.80;9.52;;;;;;;24.09;46.63;100253.72;4821240;29;20051;-78
2023/09/30 05:15:35;;;;;;;11.70;9.55;;;;;;;24.72;46.35;100272.22;4816361;29;20110;-77
2023/09/30 05:18:02;;;;;;;13.52;10.07;;;;;;;25.08;44.50;100252.25;4825891;29;20106;-81
2023/09/30 05:20:36;;;;;;;16.02;10.82;;;;;;;25.61;43.45;100255.16;4789208;29;20113;-78
2023/09/30 05:23:02;;;;;;;14.00;9.68;;;;;;;26.18;43.02;100245.25;4789079;29;20059;-78
2023/09/30 05:25:29;;;;;;;17.00;10.30;;;;;;;26.83;41.56;100253.31;4805520;29;20043;-77
2023/09/30 05:27:57;;;;;;;15.98;10.10;;;;;;;27.19;39.81;100239.19;4803461;29;20150;-78
2023/09/30 05:30:24;;;;;;;17.30;9.95;;;;;;;28.00;38.90;100249.38;4805851;29;20041;-78
2023/09/30 05:32:52;;;;;;;18.42;10.55;;;;;;;28.61;37.43;100245.69;4793472;29;20050;-78
2023/09/30 05:35:18;;;;;;;19.63;10.13;;;;;;;28.59;36.23;100166.47;4805929;29;20044;-78
2023/09/30 05:37:46;;;;;;;18.10;10.43;;;;;;;29.30;35.31;100222.44;4807280;29;20142;-77
2023/09/30 05:40:30;;;;;;;14.38;10.90;;;;;;;29.67;34.51;100232.84;4819710;29;20043;-77
2023/09/30 05:42:58;;;;;;;13.93;9.68;;;;;;;30.07;33.83;100226.00;4804046;29;20055;-78
2023/09/30 05:45:36;;;;;;;13.80;10.20;;;;;;;30.57;33.41;100230.69;4794075;29;20047;-77
2023/09/30 05:48:06;;;;;;;13.18;9.50;;;;;;;30.76;32.61;100221.06;4786785;29;20467;-78
2023/09/30 05:50:36;;;;;;;16.02;9.55;;;;;;;31.38;31.55;100239.81;4809906;29;20039;-76
2023/09/30 05:53:06;;;;;;;13.85;9.63;;;;;;;32.03;30.69;100231.25;4807397;29;20047;-77
2023/09/30 05:55:32;;;;;;;16.48;10.90;;;;;;;32.62;30.22;100236.53;4813246;29;20552;-77
2023/09/30 05:58:01;;;;;;;16.60;10.50;;;;;;;32.94;29.30;100210.19;4810005;29;20050;-78
2023/09/30 06:02:55;;;;;;;24.70;9.93;;;;;;;33.85;27.81;100219.25;4808826;29;20114;-77
2023/09/30 06:05:30;;;;;;;17.30;10.15;;;;;;;33.91;27.14;100192.53;4795535;29;20053;-75
2023/09/30 06:08:04;;;;;;;14.02;9.95;;;;;;;34.28;26.27;100200.56;4810505;29;20049;-75
2023/09/30 06:10:43;;;;;;;14.15;9.55;;;;;;;34.67;26.35;100208.25;4808106;29;20046;-75
2023/09/30 06:13:13;;;;;;;12.40;9.55;;;;;;;35.08;25.65;100218.41;4805216;29;20133;-76
2023/09/30 06:16:03;;;;;;;15.93;9.93;;;;;;;35.13;24.82;100180.91;4825754;29;20054;-73
2023/09/30 06:18:39;;;;;;;14.40;9.45;;;;;;;35.51;25.32;100221.06;4814398;29;20027;-71
2023/09/30 06:21:06;;;;;;;13.05;9.40;;;;;;;35.68;24.80;100197.59;4814970;29;20046;-71
2023/09/30 06:23:32;;;;;;;14.27;9.73;;;;;;;36.49;24.08;100203.13;4813197;29;20051;-70
2023/09/30 06:26:02;;;;;;;16.70;9.52;;;;;;;36.95;23.53;100204.34;4811482;29;20114;-72
2023/09/30 06:28:31;;;;;;;14.25;9.65;;;;;;;37.60;22.35;100202.28;4809433;29;20054;-71
2023/09/30 06:30:58;;;;;;;14.57;10.23;;;;;;;37.72;22.56;100181.81;4787537;29;20062;-74
2023/09/30 06:33:47;;;;;;;13.10;9.18;;;;;;;37.93;21.62;100158.59;4792180;29;20038;-76
2023/09/30 06:36:25;;;;;;;14.85;9.85;;;;;;;38.23;20.99;100200.19;4814348;29;20037;-78
2023/09/30 06:38:52;;;;;;;13.75;10.18;;;;;;;38.36;21.07;100194.13;4779202;29;20050;-70
2023/09/30 06:41:22;;;;;;;11.20;9.40;;;;;;;37.93;20.49;100154.00;4802710;29;20114;-76
2023/09/30 06:43:49;;;;;;;17.02;8.77;;;;;;;38.32;20.86;100173.78;4796909;29;20050;-75
2023/09/30 06:46:16;;;;;;;19.13;9.65;;;;;;;38.48;20.34;100144.78;4817987;29;20074;-77
2023/09/30 06:48:45;;;;;;;15.15;9.57;;;;;;;38.42;20.18;100147.22;4784401;29;20443;-79
2023/09/30 06:51:17;;;;;;;14.53;9.77;;;;;;;38.47;20.06;100151.25;4801710;29;20051;-80
2023/09/30 06:53:51;;;;;;;14.30;9.77;;;;;;;38.92;19.94;100152.06;4814144;29;20077;-80
2023/09/30 06:56:18;;;;;;;13.48;9.98;;;;;;;39.21;19.12;100109.44;4787160;29;20126;-80
2023/09/30 06:58:44;;;;;;;21.85;9.85;;;;;;;40.13;18.55;100147.69;4774490;29;20141;-81
2023/09/30 07:01:21;;;;;;;19.08;10.00;;;;;;;40.91;18.22;100195.72;4796981;29;20076;-77
2023/09/30 07:03:48;;;;;;;14.75;9.80;;;;;;;41.29;18.07;100188.94;4799008;29;20443;-80
2023/09/30 07:06:26;;;;;;;16.17;9.75;;;;;;;41.06;17.55;100157.38;4788778;29;20613;-78
2023/09/30 07:08:55;;;;;;;15.88;9.70;;;;;;;41.64;17.49;100150.56;4799609;29;20043;-76
2023/09/30 07:11:29;;;;;;;14.55;10.02;;;;;;;41.43;16.85;100172.56;4814761;29;20047;-76
2023/09/30 07:13:56;;;;;;;13.70;10.50;;;;;;;41.18;17.15;100175.88;4813352;29;20106;-76
2023/09/30 07:16:22;;;;;;;19.40;10.65;;;;;;;41.27;17.40;100174.66;4798329;29;20057;-77
2023/09/30 07:18:48;;;;;;;14.50;10.30;;;;;;;41.12;17.59;100123.00;4784921;29;20391;-76
2023/09/30 07:21:15;;;;;;;14.30;9.80;;;;;;;42.13;16.73;100174.91;4800434;29;20503;-74
2023/09/30 07:23:43;;;;;;;14.32;10.50;;;;;;;42.78;16.30;100178.75;4797094;29;20671;-75
2023/09/30 07:26:09;;;;;;;20.98;10.75;;;;;;;42.66;15.46;100160.25;4802483;29;20088;-76
2023/09/30 07:28:38;;;;;;;14.75;11.07;;;;;;;42.33;16.35;100165.81;4779463;29;20047;-75
2023/09/30 07:31:08;;;;;;;15.65;11.45;;;;;;;41.91;16.45;100111.47;4799430;29;20043;-78
2023/09/30 07:33:34;;;;;;;18.88;10.80;;;;;;;42.52;16.67;100170.41;4789453;29;20490;-78
2023/09/30 07:36:00;;;;;;;13.95;10.23;;;;;;;42.94;15.96;100171.94;4799186;29;20065;-78
2023/09/30 07:38:26;;;;;;;15.65;10.98;;;;;;;43.26;15.67;100141.88;4804343;29;20133;-81
2023/09/30 07:40:52;;;;;;;13.38;9.30;;;;;;;44.12;15.20;100157.81;4797716;29;20447;-78
2023/09/30 07:43:22;;;;;;;17.23;10.55;;;;;;;44.12;14.99;100142.22;4799098;29;20042;-78
2023/09/30 07:45:48;;;;;;;12.85;10.10;;;;;;;43.87;14.72;100120.31;4799765;29;20150;-79
2023/09/30 07:48:14;;;;;;;11.57;9.73;;;;;;;43.78;14.96;100126.09;4800823;29;20039;-79
2023/09/30 07:50:43;;;;;;;14.98;10.20;;;;;;;43.94;15.04;100141.09;4814522;29;20133;-81
2023/09/30 07:53:13;;;;;;;18.08;9.88;;;;;;;44.33;14.25;100135.41;4800337;29;20158;-82
2023/09/30 07:55:39;;;;;;;12.75;9.27;;;;;;;44.97;14.41;100120.50;4798537;29;20558;-75
2023/09/30 07:58:07;;;;;;;12.02;9.20;;;;;;;45.49;13.79;100108.06;4798696;29;20042;-76
2023/09/30 08:00:34;;;;;;;13.20;9.70;;;;;;;45.76;13.73;100130.44;4812464;29;20498;-77
2023/09/30 08:03:00;;;;;;;15.88;9.05;;;;;;;45.85;13.41;100144.66;4775853;29;20054;-78
2023/09/30 08:05:27;;;;;;;11.15;8.88;;;;;;;45.11;13.36;100102.75;4794070;29;20043;-76
2023/09/30 08:07:53;;;;;;;14.85;8.70;;;;;;;45.24;13.46;100125.56;4808957;29;20057;-79
2023/09/30 08:10:23;;;;;;;12.15;8.55;;;;;;;44.84;13.85;100110.53;4818894;29;20035;-80
2023/09/30 08:12:50;;;;;;;17.73;9.00;;;;;;;45.27;13.74;100111.38;4785998;29;20054;-78
2023/09/30 08:15:19;;;;;;;11.80;7.93;;;;;;;45.10;13.59;100045.38;4803654;29;20070;-77
2023/09/30 08:17:46;;;;;;;12.50;8.90;;;;;;;45.41;13.06;100101.03;4785893;29;20076;-78
2023/09/30 08:20:13;;;;;;;12.45;8.07;;;;;;;45.16;13.34;100065.53;4812705;29;20019;-77
2023/09/30 08:22:42;;;;;;;10.27;8.50;;;;;;;45.62;12.73;100082.28;4816628;29;20047;-77
2023/09/30 08:25:16;;;;;;;14.47;8.40;;;;;;;45.68;12.63;100034.66;4803747;29;20458;-76
2023/09/30 08:27:49;;;;;;;14.68;8.90;;;;;;;46.34;12.79;100096.78;4802211;29;20039;-77
2023/09/30 08:30:16;;;;;;;12.95;8.32;;;;;;;45.98;12.58;100066.63;4816345;29;20047;-76
2023/09/30 08:32:43;;;;;;;12.27;8.38;;;;;;;46.29;12.80;100094.75;4817840;29;20039;-77
2023/09/30 08:35:15;;;;;;;11.30;8.02;;;;;;;46.86;12.56;100113.22;4802208;29;20070;-80
2023/09/30 08:37:41;;;;;;;10.38;8.13;;;;;;;47.52;12.27;100073.28;4783237;29;20076;-75
2023/09/30 08:40:15;;;;;;;9.18;7.68;;;;;;;48.00;11.58;100078.41;4809596;29;20047;-76
2023/09/30 08:43:06;;;;;;;;;;;;;;;;;;;;;
2023/09/30 08:45:50;;;;;;;12.95;6.88;;;;;;;45.70;12.12;100016.84;4825297;29;20081;-78
2023/09/30 08:48:20;;;;;;;10.98;6.70;;;;;;;44.97;12.59;100019.78;4830997;29;20187;-76
2023/09/30 08:51:12;;;;;;;9.82;6.57;;;;;;;44.63;12.77;100008.50;4816207;29;20045;-80
2023/09/30 08:53:45;;;;;;;10.77;7.10;;;;;;;44.59;12.63;100039.34;4818078;29;20065;-80
2023/09/30 08:56:22;;;;;;;10.38;6.10;;;;;;;44.43;13.08;100065.50;4817154;29;20026;-76
2023/09/30 08:59:14;;;;;;;11.70;6.50;;;;;;;43.98;13.17;100089.44;4788036;29;20047;-78
2023/09/30 09:02:04;;;;;;;11.98;6.38;;;;;;;44.09;13.13;100091.44;4815811;29;20096;-78
2023/09/30 09:04:32;;;;;;;9.63;6.25;;;;;;;44.22;13.07;100081.38;4807818;29;20047;-74
2023/09/30 09:07:33;;;;;;;9.73;6.30;;;;;;;43.61;12.97;100018.16;4810049;29;20046;-73
2023/09/30 09:10:13;;;;;;;12.95;6.13;;;;;;;42.90;13.66;100001.94;4808585;29;20043;-74
2023/09/30 09:12:59;;;;;;;12.50;6.20;;;;;;;42.60;13.48;99983.41;4796618;29;20047;-74
2023/09/30 09:15:42;;;;;;;11.30;6.35;;;;;;;42.44;13.35;100023.06;4819613;29;20076;-75
2023/09/30 09:18:08;;;;;;;12.65;6.88;;;;;;;42.33;13.96;100068.28;4779058;30;20055;-72
2023/09/30 09:20:35;;;;;;;10.82;6.30;;;;;;;42.47;13.73;100051.84;4787549;29;20047;-76
2023/09/30 09:23:09;;;;;;;7.53;6.38;;;;;;;43.00;13.71;100076.16;4811208;29;20043;-76
2023/09/30 09:25:43;;;;;;;9.32;6.13;;;;;;;42.32;13.96;99998.28;4816157;29;20047;-76
2023/09/30 09:28:20;;;;;;;9.25;5.85;;;;;;;42.51;13.57;100070.31;4805164;30;20060;-75
2023/09/30 09:30:48;;;;;;;10.55;6.03;;;;;;;41.65;14.14;100059.41;4804258;29;20144;-74
2023/09/30 09:33:19;;;;;;;10.27;6.43;;;;;;;41.12;14.03;100040.34;4803315;29;20027;-74
2023/09/30 09:35:48;;;;;;;9.82;6.28;;;;;;;40.58;14.57;100023.84;4800127;29;20062;-71
2023/09/30 09:38:15;;;;;;;12.18;6.18;;;;;;;40.49;14.92;100021.31;4803007;29;20055;-74
2023/09/30 09:40:41;;;;;;;10.75;6.22;;;;;;;40.56;14.92;100053.19;4800347;29;20039;-78
2023/09/30 09:43:07;;;;;;;10.00;6.55;;;;;;;40.38;14.61;100043.69;4787800;29;20061;-73
2023/09/30 09:46:17;;;;;;;8.60;6.20;;;;;;;40.81;14.54;100061.69;4810423;30;20030;-79
2023/09/30 09:49:00;;;;;;;10.20;6.63;;;;;;;40.44;14.44;100012.06;4799168;29;20051;-79
2023/09/30 09:51:26;;;;;;;10.80;6.13;;;;;;;40.23;14.68;100027.50;4810942;29;20087;-81
2023/09/30 09:54:08;;;;;;;7.95;6.45;;;;;;;39.26;15.25;99986.47;4808922;29;20036;-78
2023/09/30 09:56:40;;;;;;;11.50;7.13;;;;;;;39.65;15.67;100046.81;4804699;29;20537;-80
2023/09/30 09:59:14;;;;;;;10.30;6.30;;;;;;;40.39;14.33;99992.78;4807674;29;20267;-76
2023/09/30 10:01:42;;;;;;;11.10;6.88;;;;;;;39.62;14.92;100037.19;4787572;30;20514;-80
2023/09/30 10:04:16;;;;;;;10.65;6.72;;;;;;;37.93;15.92;100050.84;4814003;29;20042;-77
2023/09/30 10:06:52;;;;;;;10.95;6.60;;;;;;;36.18;17.54;100058.50;4805822;30;20051;-75
2023/09/30 10:09:23;;;;;;;10.45;6.13;;;;;;;34.57;18.94;100031.94;4804866;29;20054;-78
2023/09/30 10:11:59;;;;;;;13.25;6.53;;;;;;;33.61;19.33;99995.06;4793910;29;20054;-74
2023/09/30 10:14:32;;;;;;;9.80;7.00;;;;;;;32.77;20.21;100031.38;4804312;29;20066;-70
2023/09/30 10:16:58;;;;;;;10.25;6.90;;;;;;;31.97;20.92;100020.16;4812268;29;20533;-73
2023/09/30 10:19:34;;;;;;;12.85;6.70;;;;;;;31.43;22.11;100053.91;4788320;29;20050;-76
2023/09/30 10:22:22;;;;;;;9.05;6.13;;;;;;;30.85;22.94;100052.91;4802096;29;20047;-72
2023/09/30 10:24:56;;;;;;;10.82;6.95;;;;;;;30.28;23.42;100040.88;4808602;29;20043;-74
2023/09/30 10:27:29;;;;;;;12.55;7.32;;;;;;;29.85;23.71;100048.09;4808060;29;20023;-74
2023/09/30 10:30:01;;;;;;;10.32;7.03;;;;;;;29.36;24.60;100050.47;4789942;30;20055;-75
2023/09/30 10:33:06;;;;;;;10.65;6.35;;;;;;;28.90;25.21;100032.84;4812408;29;20047;-74
2023/09/30 10:35:32;;;;;;;11.07;6.53;;;;;;;28.74;25.52;100051.97;4795926;29;20320;-75
2023/09/30 10:38:27;;;;;;;9.02;6.63;;;;;;;28.54;25.92;100041.06;4799842;29;20106;-73
2023/09/30 10:40:55;;;;;;;11.57;6.50;;;;;;;28.08;26.21;100014.31;4802349;30;20043;-74
2023/09/30 10:43:48;;;;;;;14.90;7.28;;;;;;;27.25;27.04;99920.09;4788202;30;20452;-74
2023/09/30 10:46:27;;;;;;;13.55;6.75;;;;;;;27.70;26.76;100052.06;4799628;29;20120;-74
2023/09/30 10:48:55;;;;;;;9.82;6.82;;;;;;;27.20;27.46;100005.88;4796368;29;20027;-75
2023/09/30 10:51:44;;;;;;;9.93;6.72;;;;;;;27.24;27.80;100035.03;4817679;29;20073;-74
2023/09/30 10:54:14;;;;;;;11.85;6.60;;;;;;;26.69;28.21;99977.59;4809271;29;20082;-74
2023/09/30 10:56:40;;;;;;;9.57;6.50;;;;;;;26.88;28.48;100034.97;4808764;29;20175;-73
2023/09/30 10:59:07;;;;;;;8.77;6.32;;;;;;;26.42;28.76;100008.00;4796827;30;20040;-74
2023/09/30 11:02:23;;;;;;;8.48;6.65;;;;;;;26.26;29.17;100048.25;4861726;24;20073;-73
2023/09/30 11:04:49;;;;;;;8.70;6.90;;;;;;;25.65;29.72;99979.59;4840900;29;20062;-74
2023/09/30 11:07:23;;;;;;;14.13;6.93;;;;;;;25.82;30.33;100015.72;4867406;29;20310;-73
2023/09/30 11:09:55;;;;;;;10.70;6.72;;;;;;;25.15;30.11;99909.34;4842376;29;20064;-75
2023/09/30 11:12:25;;;;;;;10.10;6.85;;;;;;;25.37;30.45;99961.97;4854441;29;20067;-71
2023/09/30 11:15:08;;;;;;;8.77;6.53;;;;;;;25.62;30.87;100021.59;4826042;29;20042;-78
2023/09/30 11:17:45;;;;;;;10.48;6.60;;;;;;;25.42;30.95;100006.00;4821504;29;20106;-71
2023/09/30 11:20:20;;;;;;;14.80;6.90;;;;;;;25.37;31.36;100024.09;4823258;29;20057;-72
2023/09/30 11:22:49;;;;;;;14.45;6.93;;;;;;;25.18;31.47;100011.16;4850564;29;20056;-72
2023/09/30 11:25:19;;;;;;;11.43;7.20;;;;;;;24.64;31.77;99946.31;4849850;29;20053;-70
2023/09/30 11:27:49;;;;;;;16.30;7.05;;;;;;;24.92;32.27;100013.72;4853741;29;20066;-77
2023/09/30 11:30:18;;;;;;;12.30;6.88;;;;;;;24.74;31.88;99985.66;4855195;29;20076;-72
2023/09/30 11:32:44;;;;;;;10.25;7.05;;;;;;;24.58;32.24;99970.69;4846438;29;20085;-73
2023/09/30 11:35:28;;;;;;;10.02;7.05;;;;;;;24.51;32.50;99983.50;4836652;29;20050;-73